sensor_id;sensor_type;location;lat;lon;timestamp;pressure;altitude;pressure_sealevel;temperature;humidity
48630;BME280;34426;52.180;4.462;2023-02-04T00:00:10;103448.63;;;7.04;92.85
48630;BME280;34426;52.180;4.462;2023-02-04T00:02:38;103453.84;;;7.07;93.28
48630;BME280;34426;52.180;4.462;2023-02-04T00:05:06;103450.53;;;7.12;92.92
48630;BME280;34426;52.180;4.462;2023-02-04T00:07:34;103447.22;;;7.08;92.73
48630;BME280;34426;52.180;4.462;2023-02-04T00:10:02;103460.97;;;7.10;92.89
48630;BME280;34426;52.180;4.462;2023-02-04T00:12:30;103450.00;;;7.08;93.06
48630;BME280;34426;52.180;4.462;2023-02-04T00:14:59;103455.22;;;7.11;93.02
48630;BME280;34426;52.180;4.462;2023-02-04T00:17:26;103460.41;;;7.14;92.73
48630;BME280;34426;52.180;4.462;2023-02-04T00:19:54;103461.66;;;7.12;92.85
48630;BME280;34426;52.180;4.462;2023-02-04T00:22:21;103456.94;;;7.12;92.94
48630;BME280;34426;52.180;4.462;2023-02-04T00:24:49;103465.66;;;7.09;92.80
48630;BME280;34426;52.180;4.462;2023-02-04T00:27:17;103469.50;;;7.08;92.87
48630;BME280;34426;52.180;4.462;2023-02-04T00:29:44;103476.09;;;7.07;92.87
48630;BME280;34426;52.180;4.462;2023-02-04T00:32:13;103470.53;;;7.07;93.21
48630;BME280;34426;52.180;4.462;2023-02-04T00:34:41;103466.00;;;7.14;92.85
48630;BME280;34426;52.180;4.462;2023-02-04T00:37:08;103472.25;;;7.16;93.18
48630;BME280;34426;52.180;4.462;2023-02-04T00:39:36;103466.69;;;7.16;92.89
48630;BME280;34426;52.180;4.462;2023-02-04T00:42:04;103473.78;;;7.19;92.86
48630;BME280;34426;52.180;4.462;2023-02-04T00:44:31;103469.09;;;7.19;93.03
48630;BME280;34426;52.180;4.462;2023-02-04T00:46:59;103461.78;;;7.18;92.97
48630;BME280;34426;52.180;4.462;2023-02-04T00:49:27;103462.47;;;7.20;93.26
48630;BME280;34426;52.180;4.462;2023-02-04T00:51:55;103464.56;;;7.18;92.93
48630;BME280;34426;52.180;4.462;2023-02-04T00:54:22;103473.44;;;7.22;92.91
48630;BME280;34426;52.180;4.462;2023-02-04T00:56:50;103468.75;;;7.22;92.96
48630;BME280;34426;52.180;4.462;2023-02-04T00:59:18;103475.34;;;7.21;93.13
48630;BME280;34426;52.180;4.462;2023-02-04T01:01:46;103473.63;;;7.20;93.15
48630;BME280;34426;52.180;4.462;2023-02-04T01:04:13;103472.56;;;7.21;93.01
48630;BME280;34426;52.180;4.462;2023-02-04T01:06:43;103467.69;;;7.23;93.38
48630;BME280;34426;52.180;4.462;2023-02-04T01:09:10;103474.84;;;7.18;93.34
48630;BME280;34426;52.180;4.462;2023-02-04T01:11:38;103481.97;;;7.20;93.20
48630;BME280;34426;52.180;4.462;2023-02-04T01:14:05;103481.97;;;7.20;93.15
48630;BME280;34426;52.180;4.462;2023-02-04T01:16:33;103482.47;;;7.24;92.96
48630;BME280;34426;52.180;4.462;2023-02-04T01:19:00;103478.63;;;7.25;92.88
48630;BME280;34426;52.180;4.462;2023-02-04T01:21:28;103476.53;;;7.27;92.82
48630;BME280;34426;52.180;4.462;2023-02-04T01:23:57;103480.91;;;7.21;93.24
48630;BME280;34426;52.180;4.462;2023-02-04T01:26:25;103482.28;;;7.25;92.94
48630;BME280;34426;52.180;4.462;2023-02-04T01:28:52;103484.22;;;7.25;92.84
48630;BME280;34426;52.180;4.462;2023-02-04T01:31:20;103483.34;;;7.24;93.08
48630;BME280;34426;52.180;4.462;2023-02-04T01:33:47;103491.00;;;7.22;93.03
48630;BME280;34426;52.180;4.462;2023-02-04T01:36:15;103491.38;;;7.19;93.05
48630;BME280;34426;52.180;4.462;2023-02-04T01:38:43;103489.28;;;7.21;93.10
48630;BME280;34426;52.180;4.462;2023-02-04T01:41:12;103491.72;;;7.16;92.88
48630;BME280;34426;52.180;4.462;2023-02-04T01:43:39;103501.81;;;7.17;92.89
48630;BME280;34426;52.180;4.462;2023-02-04T01:46:07;103496.94;;;7.19;92.84
48630;BME280;34426;52.180;4.462;2023-02-04T01:48:35;103501.13;;;7.15;93.03
48630;BME280;34426;52.180;4.462;2023-02-04T01:51:05;103507.22;;;7.11;93.10
48630;BME280;34426;52.180;4.462;2023-02-04T01:53:34;103509.13;;;7.10;93.06
48630;BME280;34426;52.180;4.462;2023-02-04T01:56:02;103507.91;;;7.13;93.52
48630;BME280;34426;52.180;4.462;2023-02-04T01:58:39;103506.69;;;7.15;93.18
48630;BME280;34426;52.180;4.462;2023-02-04T02:01:11;103523.38;;;7.15;93.30
48630;BME280;34426;52.180;4.462;2023-02-04T02:03:40;103529.66;;;7.17;93.26
48630;BME280;34426;52.180;4.462;2023-02-04T02:06:09;103521.13;;;7.19;92.98
48630;BME280;34426;52.180;4.462;2023-02-04T02:08:37;103511.06;;;7.10;92.96
48630;BME280;34426;52.180;4.462;2023-02-04T02:11:05;103525.84;;;7.10;93.23
48630;BME280;34426;52.180;4.462;2023-02-04T02:13:32;103518.88;;;7.06;93.43
48630;BME280;34426;52.180;4.462;2023-02-04T02:16:02;103524.75;;;7.19;93.07
48630;BME280;34426;52.180;4.462;2023-02-04T02:18:29;103519.22;;;7.11;93.18
48630;BME280;34426;52.180;4.462;2023-02-04T02:20:57;103523.75;;;7.12;93.14
48630;BME280;34426;52.180;4.462;2023-02-04T02:23:43;103523.03;;;7.18;93.29
48630;BME280;34426;52.180;4.462;2023-02-04T02:26:13;103529.66;;;7.09;93.27
48630;BME280;34426;52.180;4.462;2023-02-04T02:28:42;103536.81;;;7.04;93.76
48630;BME280;34426;52.180;4.462;2023-02-04T02:31:09;103548.63;;;7.06;93.23
48630;BME280;34426;52.180;4.462;2023-02-04T02:33:37;103545.56;;;6.92;93.60
48630;BME280;34426;52.180;4.462;2023-02-04T02:36:05;103550.25;;;6.92;94.10
48630;BME280;34426;52.180;4.462;2023-02-04T02:38:32;103553.22;;;6.90;94.23
48630;BME280;34426;52.180;4.462;2023-02-04T02:41:02;103549.75;;;6.88;94.25
48630;BME280;34426;52.180;4.462;2023-02-04T02:43:30;103551.31;;;6.83;94.24
48630;BME280;34426;52.180;4.462;2023-02-04T02:45:59;103542.78;;;6.84;94.65
48630;BME280;34426;52.180;4.462;2023-02-04T02:48:28;103544.88;;;6.82;94.33
48630;BME280;34426;52.180;4.462;2023-02-04T02:50:56;103542.78;;;6.84;94.65
48630;BME280;34426;52.180;4.462;2023-02-04T02:53:23;103547.66;;;6.82;95.13
48630;BME280;34426;52.180;4.462;2023-02-04T02:55:51;103552.00;;;6.85;95.11
48630;BME280;34426;52.180;4.462;2023-02-04T02:58:22;103553.56;;;6.87;94.89
48630;BME280;34426;52.180;4.462;2023-02-04T03:00:51;103552.72;;;6.87;95.11
48630;BME280;34426;52.180;4.462;2023-02-04T03:03:21;103556.88;;;6.83;94.98
48630;BME280;34426;52.180;4.462;2023-02-04T03:05:51;103558.28;;;6.87;94.67
48630;BME280;34426;52.180;4.462;2023-02-04T03:08:21;103561.75;;;6.89;95.33
48630;BME280;34426;52.180;4.462;2023-02-04T03:10:49;103569.91;;;6.90;95.21
48630;BME280;34426;52.180;4.462;2023-02-04T03:13:17;103564.34;;;6.90;95.17
48630;BME280;34426;52.180;4.462;2023-02-04T03:15:48;103555.81;;;6.92;95.07
48630;BME280;34426;52.180;4.462;2023-02-04T03:18:16;103560.69;;;6.90;95.00
48630;BME280;34426;52.180;4.462;2023-02-04T03:20:45;103561.75;;;6.89;94.84
48630;BME280;34426;52.180;4.462;2023-02-04T03:23:14;103564.84;;;6.94;95.25
48630;BME280;34426;52.180;4.462;2023-02-04T03:25:41;103566.44;;;6.88;95.44
48630;BME280;34426;52.180;4.462;2023-02-04T03:28:09;103559.66;;;6.91;95.16
48630;BME280;34426;52.180;4.462;2023-02-04T03:30:36;103558.59;;;6.92;95.35
48630;BME280;34426;52.180;4.462;2023-02-04T03:33:06;103564.47;;;7.05;95.61
48630;BME280;34426;52.180;4.462;2023-02-04T03:35:33;103567.75;;;7.09;94.89
48630;BME280;34426;52.180;4.462;2023-02-04T03:38:00;103567.25;;;7.05;94.91
48630;BME280;34426;52.180;4.462;2023-02-04T03:40:27;103560.28;;;7.01;95.18
48630;BME280;34426;52.180;4.462;2023-02-04T03:42:55;103557.50;;;7.01;94.84
48630;BME280;34426;52.180;4.462;2023-02-04T03:45:22;103554.72;;;7.01;95.14
48630;BME280;34426;52.180;4.462;2023-02-04T03:47:50;103555.44;;;7.03;94.87
48630;BME280;34426;52.180;4.462;2023-02-04T03:50:19;103549.34;;;6.99;95.02
48630;BME280;34426;52.180;4.462;2023-02-04T03:52:47;103547.09;;;6.95;95.04
48630;BME280;34426;52.180;4.462;2023-02-04T03:55:14;103553.03;;;6.92;95.15
48630;BME280;34426;52.180;4.462;2023-02-04T03:57:42;103547.47;;;6.92;94.91
48630;BME280;34426;52.180;4.462;2023-02-04T04:00:10;103542.97;;;6.91;95.20
48630;BME280;34426;52.180;4.462;2023-02-04T04:02:37;103548.53;;;6.91;95.18
48630;BME280;34426;52.180;4.462;2023-02-04T04:05:05;103548.00;;;6.87;95.32
48630;BME280;34426;52.180;4.462;2023-02-04T04:07:35;103551.50;;;6.81;95.37
48630;BME280;34426;52.180;4.462;2023-02-04T04:10:03;103547.16;;;6.71;94.80
48630;BME280;34426;52.180;4.462;2023-02-04T04:12:30;103549.59;;;6.65;95.14
48630;BME280;34426;52.180;4.462;2023-02-04T04:14:58;103555.16;;;6.65;95.18
48630;BME280;34426;52.180;4.462;2023-02-04T04:17:25;103555.50;;;6.62;95.79
48630;BME280;34426;52.180;4.462;2023-02-04T04:19:52;103567.69;;;6.70;95.79
48630;BME280;34426;52.180;4.462;2023-02-04T04:22:19;103569.41;;;6.71;95.84
48630;BME280;34426;52.180;4.462;2023-02-04T04:24:49;103566.47;;;6.72;95.78
48630;BME280;34426;52.180;4.462;2023-02-04T04:27:16;103578.78;;;6.78;96.03
48630;BME280;34426;52.180;4.462;2023-02-04T04:29:43;103576.72;;;6.80;96.20
48630;BME280;34426;52.180;4.462;2023-02-04T04:32:11;103571.47;;;6.85;95.87
48630;BME280;34426;52.180;4.462;2023-02-04T04:34:38;103566.44;;;6.88;95.50
48630;BME280;34426;52.180;4.462;2023-02-04T04:37:06;103581.03;;;6.90;95.75
48630;BME280;34426;52.180;4.462;2023-02-04T04:39:33;103591.31;;;6.90;95.66
48630;BME280;34426;52.180;4.462;2023-02-04T04:42:02;103584.31;;;6.94;95.39
48630;BME280;34426;52.180;4.462;2023-02-04T04:44:30;103588.81;;;6.95;95.65
48630;BME280;34426;52.180;4.462;2023-02-04T04:46:57;103594.03;;;6.98;95.45
48630;BME280;34426;52.180;4.462;2023-02-04T04:49:25;103596.13;;;6.96;95.84
48630;BME280;34426;52.180;4.462;2023-02-04T04:51:53;103594.38;;;6.95;95.49
48630;BME280;34426;52.180;4.462;2023-02-04T04:54:20;103593.34;;;6.96;95.63
48630;BME280;34426;52.180;4.462;2023-02-04T04:56:48;103590.09;;;6.92;95.86
48630;BME280;34426;52.180;4.462;2023-02-04T04:59:17;103601.00;;;7.02;95.63
48630;BME280;34426;52.180;4.462;2023-02-04T05:01:44;103598.56;;;6.99;95.47
48630;BME280;34426;52.180;4.462;2023-02-04T05:04:12;103603.41;;;7.13;95.10
48630;BME280;34426;52.180;4.462;2023-02-04T05:06:39;103603.06;;;7.16;94.77
48630;BME280;34426;52.180;4.462;2023-02-04T05:09:06;103605.84;;;7.08;94.93
48630;BME280;34426;52.180;4.462;2023-02-04T05:11:34;103604.63;;;7.11;94.80
48630;BME280;34426;52.180;4.462;2023-02-04T05:14:02;103610.72;;;7.14;94.37
48630;BME280;34426;52.180;4.462;2023-02-04T05:16:31;103608.47;;;7.10;94.16
48630;BME280;34426;52.180;4.462;2023-02-04T05:18:58;103604.78;;;7.17;93.61
48630;BME280;34426;52.180;4.462;2023-02-04T05:21:25;103604.28;;;7.14;93.68
48630;BME280;34426;52.180;4.462;2023-02-04T05:23:53;103613.16;;;7.17;93.65
48630;BME280;34426;52.180;4.462;2023-02-04T05:26:20;103613.16;;;7.17;93.05
48630;BME280;34426;52.180;4.462;2023-02-04T05:28:48;103612.13;;;7.10;93.29
48630;BME280;34426;52.180;4.462;2023-02-04T05:31:15;103618.22;;;7.06;93.59
48630;BME280;34426;52.180;4.462;2023-02-04T05:33:45;103612.63;;;7.14;93.36
48630;BME280;34426;52.180;4.462;2023-02-04T05:36:12;103616.81;;;7.01;93.71
48630;BME280;34426;52.180;4.462;2023-02-04T05:38:39;103623.78;;;6.97;93.69
48630;BME280;34426;52.180;4.462;2023-02-04T05:41:06;103621.88;;;6.98;93.86
48630;BME280;34426;52.180;4.462;2023-02-04T05:43:34;103627.09;;;7.01;94.20
48630;BME280;34426;52.180;4.462;2023-02-04T05:46:01;103629.16;;;6.99;94.06
48630;BME280;34426;52.180;4.462;2023-02-04T05:48:29;103626.72;;;7.04;94.01
48630;BME280;34426;52.180;4.462;2023-02-04T05:50:58;103628.28;;;7.07;93.91
48630;BME280;34426;52.180;4.462;2023-02-04T05:53:26;103632.63;;;7.09;94.03
48630;BME280;34426;52.180;4.462;2023-02-04T05:55:53;103629.53;;;6.96;94.37
48630;BME280;34426;52.180;4.462;2023-02-04T05:58:20;103635.59;;;7.08;93.97
48630;BME280;34426;52.180;4.462;2023-02-04T06:00:48;103637.16;;;7.02;94.27
48630;BME280;34426;52.180;4.462;2023-02-04T06:03:15;103634.56;;;7.00;94.36
48630;BME280;34426;52.180;4.462;2023-02-04T06:05:42;103636.81;;;6.97;94.56
48630;BME280;34426;52.180;4.462;2023-02-04T06:08:11;103645.50;;;7.02;94.48
48630;BME280;34426;52.180;4.462;2023-02-04T06:10:39;103644.47;;;7.11;94.75
48630;BME280;34426;52.180;4.462;2023-02-04T06:13:06;103654.38;;;7.14;93.92
48630;BME280;34426;52.180;4.462;2023-02-04T06:15:34;103647.94;;;7.13;93.83
48630;BME280;34426;52.180;4.462;2023-02-04T06:18:01;103654.22;;;7.07;93.99
48630;BME280;34426;52.180;4.462;2023-02-04T06:20:29;103649.00;;;7.04;94.42
48630;BME280;34426;52.180;4.462;2023-02-04T06:22:56;103661.88;;;7.05;94.36
48630;BME280;34426;52.180;4.462;2023-02-04T06:25:24;103662.22;;;7.02;94.75
48630;BME280;34426;52.180;4.462;2023-02-04T06:27:52;103660.81;;;6.98;94.84
48630;BME280;34426;52.180;4.462;2023-02-04T06:30:19;103665.34;;;6.99;94.87
48630;BME280;34426;52.180;4.462;2023-02-04T06:32:47;103662.75;;;6.97;94.88
48630;BME280;34426;52.180;4.462;2023-02-04T06:35:14;103664.31;;;7.00;94.96
48630;BME280;34426;52.180;4.462;2023-02-04T06:37:42;103678.22;;;7.00;95.30
48630;BME280;34426;52.180;4.462;2023-02-04T06:40:10;103675.78;;;6.97;95.14
48630;BME280;34426;52.180;4.462;2023-02-04T06:42:39;103673.88;;;6.97;95.35
48630;BME280;34426;52.180;4.462;2023-02-04T06:45:07;103670.56;;;6.94;95.85
48630;BME280;34426;52.180;4.462;2023-02-04T06:47:35;103680.31;;;7.06;95.69
48630;BME280;34426;52.180;4.462;2023-02-04T06:50:02;103675.44;;;7.08;95.31
48630;BME280;34426;52.180;4.462;2023-02-04T06:52:30;103678.38;;;7.07;95.51
48630;BME280;34426;52.180;4.462;2023-02-04T06:54:57;103678.38;;;6.98;95.57
48630;BME280;34426;52.180;4.462;2023-02-04T06:57:24;103688.31;;;7.01;95.74
48630;BME280;34426;52.180;4.462;2023-02-04T06:59:54;103693.53;;;7.04;95.32
48630;BME280;34426;52.180;4.462;2023-02-04T07:02:22;103689.53;;;7.07;95.36
48630;BME280;34426;52.180;4.462;2023-02-04T07:04:49;103691.59;;;7.05;95.47
48630;BME280;34426;52.180;4.462;2023-02-04T07:07:17;103697.00;;;7.06;95.60
48630;BME280;34426;52.180;4.462;2023-02-04T07:09:44;103700.81;;;7.05;95.48
48630;BME280;34426;52.180;4.462;2023-02-04T07:12:11;103699.09;;;7.04;95.67
48630;BME280;34426;52.180;4.462;2023-02-04T07:14:39;103693.88;;;7.09;95.64
48630;BME280;34426;52.180;4.462;2023-02-04T07:17:08;103689.50;;;7.15;95.56
48630;BME280;34426;52.180;4.462;2023-02-04T07:19:35;103685.50;;;7.17;95.00
48630;BME280;34426;52.180;4.462;2023-02-04T07:22:03;103693.00;;;7.17;94.87
48630;BME280;34426;52.180;4.462;2023-02-04T07:24:30;103693.34;;;7.14;95.27
48630;BME280;34426;52.180;4.462;2023-02-04T07:26:58;103685.84;;;7.22;94.62
48630;BME280;34426;52.180;4.462;2023-02-04T07:29:26;103696.47;;;7.35;93.63
48630;BME280;34426;52.180;4.462;2023-02-04T07:31:53;103703.94;;;7.34;93.76
48630;BME280;34426;52.180;4.462;2023-02-04T07:34:22;103706.34;;;7.38;93.57
48630;BME280;34426;52.180;4.462;2023-02-04T07:36:50;103703.94;;;7.34;93.35
48630;BME280;34426;52.180;4.462;2023-02-04T07:39:17;103705.88;;;7.26;93.78
48630;BME280;34426;52.180;4.462;2023-02-04T07:41:45;103709.81;;;7.40;93.39
48630;BME280;34426;52.180;4.462;2023-02-04T07:44:12;103717.00;;;7.34;93.57
48630;BME280;34426;52.180;4.462;2023-02-04T07:46:39;103718.34;;;7.38;93.47
48630;BME280;34426;52.180;4.462;2023-02-04T07:49:07;103729.13;;;7.41;93.63
48630;BME280;34426;52.180;4.462;2023-02-04T07:51:36;103725.16;;;7.36;93.75
48630;BME280;34426;52.180;4.462;2023-02-04T07:54:04;103732.13;;;7.23;93.50
48630;BME280;34426;52.180;4.462;2023-02-04T07:56:31;103733.53;;;7.19;94.00
48630;BME280;34426;52.180;4.462;2023-02-04T07:58:59;103731.09;;;7.16;94.58
48630;BME280;34426;52.180;4.462;2023-02-04T08:01:26;103733.53;;;7.19;94.74
48630;BME280;34426;52.180;4.462;2023-02-04T08:03:53;103731.44;;;7.21;94.90
48630;BME280;34426;52.180;4.462;2023-02-04T08:06:21;103735.78;;;7.32;95.08
48630;BME280;34426;52.180;4.462;2023-02-04T08:08:50;103738.41;;;7.33;95.24
48630;BME280;34426;52.180;4.462;2023-02-04T08:11:17;103741.34;;;7.32;94.98
48630;BME280;34426;52.180;4.462;2023-02-04T08:13:45;103745.31;;;7.38;94.87
48630;BME280;34426;52.180;4.462;2023-02-04T08:16:12;103749.16;;;7.37;95.33
48630;BME280;34426;52.180;4.462;2023-02-04T08:18:40;103747.59;;;7.42;95.35
48630;BME280;34426;52.180;4.462;2023-02-04T08:21:07;103749.84;;;7.47;95.14
48630;BME280;34426;52.180;4.462;2023-02-04T08:23:34;103753.66;;;7.46;94.96
48630;BME280;34426;52.180;4.462;2023-02-04T08:26:04;103762.72;;;7.56;95.22
48630;BME280;34426;52.180;4.462;2023-02-04T08:28:31;103763.94;;;7.61;95.15
48630;BME280;34426;52.180;4.462;2023-02-04T08:30:58;103770.00;;;7.65;94.76
48630;BME280;34426;52.180;4.462;2023-02-04T08:33:26;103767.91;;;7.67;94.99
48630;BME280;34426;52.180;4.462;2023-02-04T08:35:53;103773.66;;;7.74;95.27
48630;BME280;34426;52.180;4.462;2023-02-04T08:38:20;103778.00;;;7.76;94.74
48630;BME280;34426;52.180;4.462;2023-02-04T08:40:48;103778.69;;;7.78;94.81
48630;BME280;34426;52.180;4.462;2023-02-04T08:43:17;103771.00;;;7.80;95.14
48630;BME280;34426;52.180;4.462;2023-02-04T08:45:45;103780.75;;;7.84;94.76
48630;BME280;34426;52.180;4.462;2023-02-04T08:48:12;103787.00;;;7.94;94.28
48630;BME280;34426;52.180;4.462;2023-02-04T08:50:39;103784.22;;;7.94;94.18
48630;BME280;34426;52.180;4.462;2023-02-04T08:53:06;103791.84;;;8.00;94.48
48630;BME280;34426;52.180;4.462;2023-02-04T08:55:33;103787.88;;;7.95;94.03
48630;BME280;34426;52.180;4.462;2023-02-04T08:58:01;103784.91;;;7.96;94.01
48630;BME280;34426;52.180;4.462;2023-02-04T09:00:30;103783.16;;;7.95;94.27
48630;BME280;34426;52.180;4.462;2023-02-04T09:02:57;103791.84;;;8.00;93.57
48630;BME280;34426;52.180;4.462;2023-02-04T09:05:25;103792.88;;;8.08;93.52
48630;BME280;34426;52.180;4.462;2023-02-04T09:07:52;103791.16;;;8.07;93.77
48630;BME280;34426;52.180;4.462;2023-02-04T09:10:18;103795.34;;;8.02;93.18
48630;BME280;34426;52.180;4.462;2023-02-04T09:12:46;103797.41;;;8.09;93.78
48630;BME280;34426;52.180;4.462;2023-02-04T09:15:13;103798.03;;;8.27;93.77
48630;BME280;34426;52.180;4.462;2023-02-04T09:17:42;103802.53;;;8.28;92.60
48630;BME280;34426;52.180;4.462;2023-02-04T09:20:10;103800.44;;;8.38;92.33
48630;BME280;34426;52.180;4.462;2023-02-04T09:22:38;103807.41;;;8.42;92.83
48630;BME280;34426;52.180;4.462;2023-02-04T09:25:06;103801.09;;;8.48;91.75
48630;BME280;34426;52.180;4.462;2023-02-04T09:27:33;103801.81;;;8.42;91.63
48630;BME280;34426;52.180;4.462;2023-02-04T09:30:01;103804.28;;;8.37;91.70
48630;BME280;34426;52.180;4.462;2023-02-04T09:32:29;103810.22;;;8.26;91.40
48630;BME280;34426;52.180;4.462;2023-02-04T09:34:59;103811.66;;;8.22;91.78
48630;BME280;34426;52.180;4.462;2023-02-04T09:37:26;103811.66;;;8.22;92.46
48630;BME280;34426;52.180;4.462;2023-02-04T09:39:53;103815.50;;;8.21;92.39
48630;BME280;34426;52.180;4.462;2023-02-04T09:42:23;103825.03;;;8.26;93.22
48630;BME280;34426;52.180;4.462;2023-02-04T09:44:52;103825.59;;;8.22;92.23
48630;BME280;34426;52.180;4.462;2023-02-04T09:47:22;103825.03;;;8.26;92.54
48630;BME280;34426;52.180;4.462;2023-02-04T09:49:51;103827.28;;;8.31;92.69
48630;BME280;34426;52.180;4.462;2023-02-04T09:52:21;103829.03;;;8.32;91.75
48630;BME280;34426;52.180;4.462;2023-02-04T09:54:48;103839.13;;;8.41;92.36
48630;BME280;34426;52.180;4.462;2023-02-04T09:57:17;103836.16;;;8.43;92.17
48630;BME280;34426;52.180;4.462;2023-02-04T09:59:45;103833.56;;;8.41;91.44
48630;BME280;34426;52.180;4.462;2023-02-04T10:02:20;103831.09;;;8.46;91.76
48630;BME280;34426;52.180;4.462;2023-02-04T10:04:48;103845.38;;;8.51;91.77
48630;BME280;34426;52.180;4.462;2023-02-04T10:07:17;103844.47;;;8.59;90.85
48630;BME280;34426;52.180;4.462;2023-02-04T10:09:47;103853.00;;;8.65;90.35
48630;BME280;34426;52.180;4.462;2023-02-04T10:12:15;103849.69;;;8.62;90.17
48630;BME280;34426;52.180;4.462;2023-02-04T10:14:43;103857.88;;;8.63;90.39
48630;BME280;34426;52.180;4.462;2023-02-04T10:17:12;103853.88;;;8.66;89.80
48630;BME280;34426;52.180;4.462;2023-02-04T10:19:43;103859.81;;;8.63;90.45
48630;BME280;34426;52.180;4.462;2023-02-04T10:22:16;103861.03;;;8.60;89.64
48630;BME280;34426;52.180;4.462;2023-02-04T10:24:45;103862.44;;;8.56;90.10
48630;BME280;34426;52.180;4.462;2023-02-04T10:27:13;103852.31;;;8.63;90.41
48630;BME280;34426;52.180;4.462;2023-02-04T10:29:41;103853.88;;;8.66;89.48
48630;BME280;34426;52.180;4.462;2023-02-04T10:32:29;103863.41;;;8.72;90.03
48630;BME280;34426;52.180;4.462;2023-02-04T10:34:59;103859.56;;;8.73;89.66
48630;BME280;34426;52.180;4.462;2023-02-04T10:37:26;103864.63;;;8.69;89.72
48630;BME280;34426;52.180;4.462;2023-02-04T10:39:55;103858.38;;;8.67;89.68
48630;BME280;34426;52.180;4.462;2023-02-04T10:42:24;103859.28;;;8.59;89.13
48630;BME280;34426;52.180;4.462;2023-02-04T10:44:52;103869.59;;;8.59;89.85
48630;BME280;34426;52.180;4.462;2023-02-04T10:47:20;103871.19;;;8.53;89.83
48630;BME280;34426;52.180;4.462;2023-02-04T10:49:56;103864.00;;;8.59;90.23
48630;BME280;34426;52.180;4.462;2023-02-04T10:52:32;103866.97;;;8.57;89.99
48630;BME280;34426;52.180;4.462;2023-02-04T10:55:04;103862.25;;;8.66;90.03
48630;BME280;34426;52.180;4.462;2023-02-04T10:57:35;103864.81;;;8.67;90.40
48630;BME280;34426;52.180;4.462;2023-02-04T11:00:06;103862.53;;;8.71;90.01
48630;BME280;34426;52.180;4.462;2023-02-04T11:02:48;103859.56;;;8.73;90.16
48630;BME280;34426;52.180;4.462;2023-02-04T11:05:21;103862.69;;;8.78;90.02
48630;BME280;34426;52.180;4.462;2023-02-04T11:07:49;103852.75;;;8.75;89.14
48630;BME280;34426;52.180;4.462;2023-02-04T11:10:20;103865.13;;;8.73;89.02
48630;BME280;34426;52.180;4.462;2023-02-04T11:13:00;103859.34;;;8.82;89.70
48630;BME280;34426;52.180;4.462;2023-02-04T11:15:45;103866.84;;;8.82;89.22
48630;BME280;34426;52.180;4.462;2023-02-04T11:18:25;103860.94;;;8.77;89.42
48630;BME280;34426;52.180;4.462;2023-02-04T11:20:55;103859.88;;;8.78;90.13
48630;BME280;34426;52.180;4.462;2023-02-04T11:23:34;103848.75;;;8.70;89.91
48630;BME280;34426;52.180;4.462;2023-02-04T11:26:06;103853.78;;;8.74;90.46
48630;BME280;34426;52.180;4.462;2023-02-04T11:28:49;103850.69;;;8.69;89.55
48630;BME280;34426;52.180;4.462;2023-02-04T11:31:40;103848.03;;;8.76;89.68
48630;BME280;34426;52.180;4.462;2023-02-04T11:34:24;103851.19;;;8.73;90.43
48630;BME280;34426;52.180;4.462;2023-02-04T11:37:02;103849.41;;;8.80;89.96
48630;BME280;34426;52.180;4.462;2023-02-04T11:39:34;103849.72;;;8.85;89.73
48630;BME280;34426;52.180;4.462;2023-02-04T11:42:04;103839.25;;;8.87;89.94
48630;BME280;34426;52.180;4.462;2023-02-04T11:44:40;103844.22;;;8.68;89.30
48630;BME280;34426;52.180;4.462;2023-02-04T11:47:08;103848.72;;;8.78;90.10
48630;BME280;34426;52.180;4.462;2023-02-04T11:49:36;103851.50;;;8.78;89.94
48630;BME280;34426;52.180;4.462;2023-02-04T11:52:05;103852.16;;;8.88;89.84
48630;BME280;34426;52.180;4.462;2023-02-04T11:54:32;103843.00;;;9.02;90.05
48630;BME280;34426;52.180;4.462;2023-02-04T11:57:00;103846.34;;;9.20;89.07
48630;BME280;34426;52.180;4.462;2023-02-04T11:59:29;103844.50;;;9.36;88.81
48630;BME280;34426;52.180;4.462;2023-02-04T12:02:13;103845.50;;;9.43;88.61
48630;BME280;34426;52.180;4.462;2023-02-04T12:04:50;103850.84;;;9.52;87.87
48630;BME280;34426;52.180;4.462;2023-02-04T12:07:25;103839.38;;;9.62;87.66
48630;BME280;34426;52.180;4.462;2023-02-04T12:09:53;103846.31;;;9.66;86.98
48630;BME280;34426;52.180;4.462;2023-02-04T12:12:28;103842.09;;;9.70;86.98
48630;BME280;34426;52.180;4.462;2023-02-04T12:15:02;103847.63;;;9.78;86.76
48630;BME280;34426;52.180;4.462;2023-02-04T12:17:30;103843.47;;;9.74;87.07
48630;BME280;34426;52.180;4.462;2023-02-04T12:19:57;103848.69;;;9.77;87.39
48630;BME280;34426;52.180;4.462;2023-02-04T12:22:25;103847.91;;;9.83;86.42
48630;BME280;34426;52.180;4.462;2023-02-04T12:24:52;103844.19;;;9.91;86.79
48630;BME280;34426;52.180;4.462;2023-02-04T12:27:20;103849.28;;;9.87;86.29
48630;BME280;34426;52.180;4.462;2023-02-04T12:29:47;103857.09;;;9.92;85.57
48630;BME280;34426;52.180;4.462;2023-02-04T12:32:17;103858.66;;;9.94;85.34
48630;BME280;34426;52.180;4.462;2023-02-04T12:34:45;103857.97;;;9.92;85.08
48630;BME280;34426;52.180;4.462;2023-02-04T12:37:12;103854.88;;;9.87;86.20
48630;BME280;34426;52.180;4.462;2023-02-04T12:39:40;103851.78;;;9.82;84.88
48630;BME280;34426;52.180;4.462;2023-02-04T12:42:07;103844.63;;;9.80;85.52
48630;BME280;34426;52.180;4.462;2023-02-04T12:44:35;103854.53;;;9.67;85.23
48630;BME280;34426;52.180;4.462;2023-02-04T12:47:03;103837.94;;;9.66;85.74
48630;BME280;34426;52.180;4.462;2023-02-04T12:49:33;103841.13;;;9.63;86.47
48630;BME280;34426;52.180;4.462;2023-02-04T12:52:00;103845.09;;;9.68;86.45
48630;BME280;34426;52.180;4.462;2023-02-04T12:54:27;103838.50;;;9.61;86.84
48630;BME280;34426;52.180;4.462;2023-02-04T12:56:54;103840.53;;;9.53;86.69
48630;BME280;34426;52.180;4.462;2023-02-04T12:59:22;103838.00;;;9.43;86.70
48630;BME280;34426;52.180;4.462;2023-02-04T13:01:49;103847.97;;;9.38;86.69
48630;BME280;34426;52.180;4.462;2023-02-04T13:04:23;103833.81;;;9.39;86.96
48630;BME280;34426;52.180;4.462;2023-02-04T13:06:52;103827.88;;;9.42;87.23